sensor_id;sensor_type;location;lat;lon;timestamp;temperature;humidity
13458;DHT22;6801;53.018;11.560;2024-02-26T00:01:29;5.00;76.20
13458;DHT22;6801;53.018;11.560;2024-02-26T00:03:59;5.00;76.40
13458;DHT22;6801;53.018;11.560;2024-02-26T00:06:28;4.90;76.40
13458;DHT22;6801;53.018;11.560;2024-02-26T00:08:55;4.90;76.40
13458;DHT22;6801;53.018;11.560;2024-02-26T00:11:22;4.80;76.50
13458;DHT22;6801;53.018;11.560;2024-02-26T00:13:50;4.80;76.60
13458;DHT22;6801;53.018;11.560;2024-02-26T00:16:17;4.70;76.90
13458;DHT22;6801;53.018;11.560;2024-02-26T00:18:44;4.70;77.00
13458;DHT22;6801;53.018;11.560;2024-02-26T00:21:12;4.70;77.10
13458;DHT22;6801;53.018;11.560;2024-02-26T00:23:39;4.60;77.20
13458;DHT22;6801;53.018;11.560;2024-02-26T00:26:06;4.60;77.30
13458;DHT22;6801;53.018;11.560;2024-02-26T00:28:34;4.70;77.30
13458;DHT22;6801;53.018;11.560;2024-02-26T00:31:01;4.70;77.50
13458;DHT22;6801;53.018;11.560;2024-02-26T00:33:29;4.70;77.40
13458;DHT22;6801;53.018;11.560;2024-02-26T00:35:56;4.70;77.40
13458;DHT22;6801;53.018;11.560;2024-02-26T00:38:24;4.70;77.30
13458;DHT22;6801;53.018;11.560;2024-02-26T00:40:51;4.70;77.50
13458;DHT22;6801;53.018;11.560;2024-02-26T00:43:18;4.60;77.60
13458;DHT22;6801;53.018;11.560;2024-02-26T00:45:46;4.60;77.70
13458;DHT22;6801;53.018;11.560;2024-02-26T00:48:13;4.60;77.70
13458;DHT22;6801;53.018;11.560;2024-02-26T00:50:40;4.60;77.70
13458;DHT22;6801;53.018;11.560;2024-02-26T00:53:08;4.60;77.70
13458;DHT22;6801;53.018;11.560;2024-02-26T00:55:36;4.60;77.70
13458;DHT22;6801;53.018;11.560;2024-02-26T00:58:03;4.60;77.60
13458;DHT22;6801;53.018;11.560;2024-02-26T01:00:30;4.60;77.50
13458;DHT22;6801;53.018;11.560;2024-02-26T01:02:58;4.60;77.50
13458;DHT22;6801;53.018;11.560;2024-02-26T01:05:25;4.50;77.30
13458;DHT22;6801;53.018;11.560;2024-02-26T01:07:52;4.50;77.50
13458;DHT22;6801;53.018;11.560;2024-02-26T01:10:20;4.50;77.50
13458;DHT22;6801;53.018;11.560;2024-02-26T01:12:48;4.50;77.50
13458;DHT22;6801;53.018;11.560;2024-02-26T01:15:15;4.50;77.70
13458;DHT22;6801;53.018;11.560;2024-02-26T01:17:44;4.50;77.60
13458;DHT22;6801;53.018;11.560;2024-02-26T01:20:11;4.50;77.40
13458;DHT22;6801;53.018;11.560;2024-02-26T01:22:38;4.40;77.50
13458;DHT22;6801;53.018;11.560;2024-02-26T01:25:07;4.40;77.50
13458;DHT22;6801;53.018;11.560;2024-02-26T01:27:35;4.40;77.50
13458;DHT22;6801;53.018;11.560;2024-02-26T01:30:04;4.30;77.50
13458;DHT22;6801;53.018;11.560;2024-02-26T01:32:31;4.30;77.60
13458;DHT22;6801;53.018;11.560;2024-02-26T01:34:58;4.30;77.40
13458;DHT22;6801;53.018;11.560;2024-02-26T01:37:26;4.30;77.30
13458;DHT22;6801;53.018;11.560;2024-02-26T01:39:53;4.20;77.30
13458;DHT22;6801;53.018;11.560;2024-02-26T01:42:20;4.20;77.50
13458;DHT22;6801;53.018;11.560;2024-02-26T01:44:47;4.20;77.60
13458;DHT22;6801;53.018;11.560;2024-02-26T01:47:15;4.20;77.50
13458;DHT22;6801;53.018;11.560;2024-02-26T01:49:43;4.20;77.50
13458;DHT22;6801;53.018;11.560;2024-02-26T01:52:10;4.20;77.60
13458;DHT22;6801;53.018;11.560;2024-02-26T01:54:38;4.20;77.40
13458;DHT22;6801;53.018;11.560;2024-02-26T01:57:08;4.10;77.50
13458;DHT22;6801;53.018;11.560;2024-02-26T01:59:35;4.10;77.50
13458;DHT22;6801;53.018;11.560;2024-02-26T02:02:05;4.10;77.50
13458;DHT22;6801;53.018;11.560;2024-02-26T02:04:36;4.10;77.80
13458;DHT22;6801;53.018;11.560;2024-02-26T02:07:03;4.10;77.70
13458;DHT22;6801;53.018;11.560;2024-02-26T02:09:31;4.10;77.70
13458;DHT22;6801;53.018;11.560;2024-02-26T02:11:59;4.10;77.70
13458;DHT22;6801;53.018;11.560;2024-02-26T02:14:27;4.10;77.90
13458;DHT22;6801;53.018;11.560;2024-02-26T02:16:54;4.10;77.80
13458;DHT22;6801;53.018;11.560;2024-02-26T02:19:21;4.10;77.80
13458;DHT22;6801;53.018;11.560;2024-02-26T02:21:50;4.00;78.00
13458;DHT22;6801;53.018;11.560;2024-02-26T02:24:17;4.00;78.00
13458;DHT22;6801;53.018;11.560;2024-02-26T02:26:44;4.00;78.10
13458;DHT22;6801;53.018;11.560;2024-02-26T02:29:12;4.10;78.00
13458;DHT22;6801;53.018;11.560;2024-02-26T02:31:39;4.10;78.30
13458;DHT22;6801;53.018;11.560;2024-02-26T02:34:08;4.10;78.20
13458;DHT22;6801;53.018;11.560;2024-02-26T02:36:51;4.00;78.10
13458;DHT22;6801;53.018;11.560;2024-02-26T02:39:18;4.00;78.30
13458;DHT22;6801;53.018;11.560;2024-02-26T02:41:45;4.00;78.20
13458;DHT22;6801;53.018;11.560;2024-02-26T02:44:12;4.00;78.10
13458;DHT22;6801;53.018;11.560;2024-02-26T02:46:40;4.00;78.10
13458;DHT22;6801;53.018;11.560;2024-02-26T02:49:08;4.00;78.30
13458;DHT22;6801;53.018;11.560;2024-02-26T02:51:36;4.00;78.20
13458;DHT22;6801;53.018;11.560;2024-02-26T02:54:05;4.00;78.20
13458;DHT22;6801;53.018;11.560;2024-02-26T02:56:32;4.00;78.20
13458;DHT22;6801;53.018;11.560;2024-02-26T02:58:59;4.00;78.30
13458;DHT22;6801;53.018;11.560;2024-02-26T03:01:26;4.00;78.30
13458;DHT22;6801;53.018;11.560;2024-02-26T03:03:53;4.00;78.40
13458;DHT22;6801;53.018;11.560;2024-02-26T03:06:20;3.90;78.50
13458;DHT22;6801;53.018;11.560;2024-02-26T03:08:47;4.00;78.50
13458;DHT22;6801;53.018;11.560;2024-02-26T03:11:16;4.00;78.50
13458;DHT22;6801;53.018;11.560;2024-02-26T03:13:43;4.00;78.40
13458;DHT22;6801;53.018;11.560;2024-02-26T03:16:11;3.90;78.30
13458;DHT22;6801;53.018;11.560;2024-02-26T03:18:38;3.90;78.40
13458;DHT22;6801;53.018;11.560;2024-02-26T03:21:05;3.90;78.50
13458;DHT22;6801;53.018;11.560;2024-02-26T03:23:33;3.90;78.40
13458;DHT22;6801;53.018;11.560;2024-02-26T03:26:02;3.90;78.40
13458;DHT22;6801;53.018;11.560;2024-02-26T03:28:31;3.90;78.40
13458;DHT22;6801;53.018;11.560;2024-02-26T03:30:59;3.90;78.40
13458;DHT22;6801;53.018;11.560;2024-02-26T03:33:26;3.80;78.40
13458;DHT22;6801;53.018;11.560;2024-02-26T03:35:53;3.90;78.40
13458;DHT22;6801;53.018;11.560;2024-02-26T03:38:20;3.80;78.40
13458;DHT22;6801;53.018;11.560;2024-02-26T03:40:47;3.80;78.40
13458;DHT22;6801;53.018;11.560;2024-02-26T03:43:14;3.80;78.50
13458;DHT22;6801;53.018;11.560;2024-02-26T03:45:43;3.80;78.40
13458;DHT22;6801;53.018;11.560;2024-02-26T03:48:10;3.70;78.40
13458;DHT22;6801;53.018;11.560;2024-02-26T03:50:37;3.80;78.40
13458;DHT22;6801;53.018;11.560;2024-02-26T03:53:04;3.80;78.50
13458;DHT22;6801;53.018;11.560;2024-02-26T03:55:31;3.70;78.50
13458;DHT22;6801;53.018;11.560;2024-02-26T03:57:58;3.80;78.40
13458;DHT22;6801;53.018;11.560;2024-02-26T04:00:26;3.70;78.30
13458;DHT22;6801;53.018;11.560;2024-02-26T04:02:56;3.70;78.30
13458;DHT22;6801;53.018;11.560;2024-02-26T04:05:23;3.70;78.20
13458;DHT22;6801;53.018;11.560;2024-02-26T04:07:50;3.70;78.20
13458;DHT22;6801;53.018;11.560;2024-02-26T04:10:17;3.70;78.20
13458;DHT22;6801;53.018;11.560;2024-02-26T04:12:44;3.70;78.20
13458;DHT22;6801;53.018;11.560;2024-02-26T04:15:12;3.60;78.20
13458;DHT22;6801;53.018;11.560;2024-02-26T04:17:40;3.60;78.20
13458;DHT22;6801;53.018;11.560;2024-02-26T04:20:13;3.60;78.20
13458;DHT22;6801;53.018;11.560;2024-02-26T04:22:41;3.60;78.20
13458;DHT22;6801;53.018;11.560;2024-02-26T04:25:08;3.60;78.10
13458;DHT22;6801;53.018;11.560;2024-02-26T04:27:35;3.60;78.30
13458;DHT22;6801;53.018;11.560;2024-02-26T04:30:03;3.60;78.30
13458;DHT22;6801;53.018;11.560;2024-02-26T04:32:31;3.50;78.30
13458;DHT22;6801;53.018;11.560;2024-02-26T04:34:58;3.60;78.30
13458;DHT22;6801;53.018;11.560;2024-02-26T04:37:26;3.50;78.20
13458;DHT22;6801;53.018;11.560;2024-02-26T04:39:58;3.50;78.20
13458;DHT22;6801;53.018;11.560;2024-02-26T04:42:25;3.50;78.20
13458;DHT22;6801;53.018;11.560;2024-02-26T04:44:52;3.50;78.10
13458;DHT22;6801;53.018;11.560;2024-02-26T04:47:19;3.50;78.10
13458;DHT22;6801;53.018;11.560;2024-02-26T04:49:47;3.50;78.00
13458;DHT22;6801;53.018;11.560;2024-02-26T04:52:14;3.40;77.90
13458;DHT22;6801;53.018;11.560;2024-02-26T04:54:43;3.50;77.90
13458;DHT22;6801;53.018;11.560;2024-02-26T04:57:10;3.50;78.00
13458;DHT22;6801;53.018;11.560;2024-02-26T04:59:37;3.40;78.10
13458;DHT22;6801;53.018;11.560;2024-02-26T05:02:06;3.40;78.10
13458;DHT22;6801;53.018;11.560;2024-02-26T05:04:33;3.40;78.00
13458;DHT22;6801;53.018;11.560;2024-02-26T05:07:00;3.40;78.00
13458;DHT22;6801;53.018;11.560;2024-02-26T05:09:27;3.30;78.00
13458;DHT22;6801;53.018;11.560;2024-02-26T05:11:56;3.30;78.10
13458;DHT22;6801;53.018;11.560;2024-02-26T05:14:23;3.30;78.20
13458;DHT22;6801;53.018;11.560;2024-02-26T05:16:50;3.30;78.30
13458;DHT22;6801;53.018;11.560;2024-02-26T05:19:17;3.30;78.30
13458;DHT22;6801;53.018;11.560;2024-02-26T05:21:44;3.30;78.40
13458;DHT22;6801;53.018;11.560;2024-02-26T05:24:13;3.30;78.30
13458;DHT22;6801;53.018;11.560;2024-02-26T05:26:41;3.30;78.30
13458;DHT22;6801;53.018;11.560;2024-02-26T05:29:09;3.30;78.30
13458;DHT22;6801;53.018;11.560;2024-02-26T05:31:37;3.30;78.30
13458;DHT22;6801;53.018;11.560;2024-02-26T05:34:04;3.30;78.30
13458;DHT22;6801;53.018;11.560;2024-02-26T05:36:31;3.30;78.30
13458;DHT22;6801;53.018;11.560;2024-02-26T05:38:59;3.40;78.30
13458;DHT22;6801;53.018;11.560;2024-02-26T05:41:26;3.30;78.30
13458;DHT22;6801;53.018;11.560;2024-02-26T05:43:54;3.30;78.20
13458;DHT22;6801;53.018;11.560;2024-02-26T05:46:22;3.30;78.20
13458;DHT22;6801;53.018;11.560;2024-02-26T05:48:51;3.30;78.30
13458;DHT22;6801;53.018;11.560;2024-02-26T05:51:19;3.30;78.40
13458;DHT22;6801;53.018;11.560;2024-02-26T05:53:46;3.30;78.60
13458;DHT22;6801;53.018;11.560;2024-02-26T05:56:19;3.30;78.60
13458;DHT22;6801;53.018;11.560;2024-02-26T05:58:47;3.30;78.50
13458;DHT22;6801;53.018;11.560;2024-02-26T06:01:15;3.30;78.50
13458;DHT22;6801;53.018;11.560;2024-02-26T06:03:44;3.30;78.40
13458;DHT22;6801;53.018;11.560;2024-02-26T06:06:12;3.30;78.40
13458;DHT22;6801;53.018;11.560;2024-02-26T06:08:39;3.30;78.30
13458;DHT22;6801;53.018;11.560;2024-02-26T06:11:07;3.30;78.30
13458;DHT22;6801;53.018;11.560;2024-02-26T06:13:34;3.30;78.30
13458;DHT22;6801;53.018;11.560;2024-02-26T06:16:02;3.30;78.30
13458;DHT22;6801;53.018;11.560;2024-02-26T06:18:29;3.30;78.20
13458;DHT22;6801;53.018;11.560;2024-02-26T06:20:57;3.20;78.20
13458;DHT22;6801;53.018;11.560;2024-02-26T06:23:25;3.30;78.20
13458;DHT22;6801;53.018;11.560;2024-02-26T06:25:52;3.20;78.40
13458;DHT22;6801;53.018;11.560;2024-02-26T06:28:19;3.20;78.50
13458;DHT22;6801;53.018;11.560;2024-02-26T06:30:46;3.20;78.60
13458;DHT22;6801;53.018;11.560;2024-02-26T06:33:13;3.20;78.60
13458;DHT22;6801;53.018;11.560;2024-02-26T06:35:41;3.20;78.60
13458;DHT22;6801;53.018;11.560;2024-02-26T06:38:09;3.20;78.50
13458;DHT22;6801;53.018;11.560;2024-02-26T06:40:38;3.20;78.50
13458;DHT22;6801;53.018;11.560;2024-02-26T06:43:05;3.20;78.40
13458;DHT22;6801;53.018;11.560;2024-02-26T06:45:32;3.20;78.30
13458;DHT22;6801;53.018;11.560;2024-02-26T06:47:59;3.20;78.40
13458;DHT22;6801;53.018;11.560;2024-02-26T06:50:26;3.20;78.30
13458;DHT22;6801;53.018;11.560;2024-02-26T06:52:54;3.20;78.30
13458;DHT22;6801;53.018;11.560;2024-02-26T06:55:22;3.20;78.30
13458;DHT22;6801;53.018;11.560;2024-02-26T06:57:49;3.20;78.50
13458;DHT22;6801;53.018;11.560;2024-02-26T07:00:17;3.30;78.60
13458;DHT22;6801;53.018;11.560;2024-02-26T07:02:44;3.30;78.60
13458;DHT22;6801;53.018;11.560;2024-02-26T07:05:11;3.30;78.50
13458;DHT22;6801;53.018;11.560;2024-02-26T07:07:38;3.30;78.50
13458;DHT22;6801;53.018;11.560;2024-02-26T07:10:06;3.30;78.50
13458;DHT22;6801;53.018;11.560;2024-02-26T07:12:35;3.30;78.60
13458;DHT22;6801;53.018;11.560;2024-02-26T07:15:02;3.30;78.50
13458;DHT22;6801;53.018;11.560;2024-02-26T07:17:30;3.30;78.50
13458;DHT22;6801;53.018;11.560;2024-02-26T07:19:59;3.40;78.40
13458;DHT22;6801;53.018;11.560;2024-02-26T07:22:26;3.40;78.40
13458;DHT22;6801;53.018;11.560;2024-02-26T07:24:53;3.40;78.50
13458;DHT22;6801;53.018;11.560;2024-02-26T07:27:21;3.50;78.70
13458;DHT22;6801;53.018;11.560;2024-02-26T07:29:49;3.50;78.80
13458;DHT22;6801;53.018;11.560;2024-02-26T07:32:16;3.50;78.90
13458;DHT22;6801;53.018;11.560;2024-02-26T07:34:43;3.50;79.00
13458;DHT22;6801;53.018;11.560;2024-02-26T07:37:10;3.50;79.00
13458;DHT22;6801;53.018;11.560;2024-02-26T07:39:38;3.50;79.00
13458;DHT22;6801;53.018;11.560;2024-02-26T07:42:05;3.50;79.10
13458;DHT22;6801;53.018;11.560;2024-02-26T07:44:32;3.60;79.30
13458;DHT22;6801;53.018;11.560;2024-02-26T07:47:01;3.60;79.30
13458;DHT22;6801;53.018;11.560;2024-02-26T07:49:28;3.70;79.40
13458;DHT22;6801;53.018;11.560;2024-02-26T07:51:55;3.80;79.20
13458;DHT22;6801;53.018;11.560;2024-02-26T07:54:24;3.80;79.60
13458;DHT22;6801;53.018;11.560;2024-02-26T07:56:51;3.90;79.50
13458;DHT22;6801;53.018;11.560;2024-02-26T07:59:18;4.00;79.50
13458;DHT22;6801;53.018;11.560;2024-02-26T08:01:49;4.00;79.30
13458;DHT22;6801;53.018;11.560;2024-02-26T08:04:18;4.00;79.20
13458;DHT22;6801;53.018;11.560;2024-02-26T08:06:45;4.00;79.20
13458;DHT22;6801;53.018;11.560;2024-02-26T08:09:12;4.00;79.20
13458;DHT22;6801;53.018;11.560;2024-02-26T08:11:39;4.00;79.30
13458;DHT22;6801;53.018;11.560;2024-02-26T08:14:06;4.00;79.40
13458;DHT22;6801;53.018;11.560;2024-02-26T08:16:33;4.00;79.40
13458;DHT22;6801;53.018;11.560;2024-02-26T08:19:01;4.10;79.40
13458;DHT22;6801;53.018;11.560;2024-02-26T08:21:29;4.10;79.30
13458;DHT22;6801;53.018;11.560;2024-02-26T08:23:56;4.10;79.30
13458;DHT22;6801;53.018;11.560;2024-02-26T08:26:24;4.10;79.30
13458;DHT22;6801;53.018;11.560;2024-02-26T08:28:51;4.10;79.30
13458;DHT22;6801;53.018;11.560;2024-02-26T08:31:20;4.10;79.40
13458;DHT22;6801;53.018;11.560;2024-02-26T08:33:47;4.10;79.40
13458;DHT22;6801;53.018;11.560;2024-02-26T08:36:14;4.10;79.40
13458;DHT22;6801;53.018;11.560;2024-02-26T08:38:44;4.20;79.40
13458;DHT22;6801;53.018;11.560;2024-02-26T08:41:11;4.20;79.40
13458;DHT22;6801;53.018;11.560;2024-02-26T08:43:38;4.20;79.40
13458;DHT22;6801;53.018;11.560;2024-02-26T08:46:08;4.20;79.40
13458;DHT22;6801;53.018;11.560;2024-02-26T08:48:36;4.30;79.40
13458;DHT22;6801;53.018;11.560;2024-02-26T08:51:05;4.30;79.50
13458;DHT22;6801;53.018;11.560;2024-02-26T08:53:33;4.30;79.50
13458;DHT22;6801;53.018;11.560;2024-02-26T08:56:02;4.30;79.50
13458;DHT22;6801;53.018;11.560;2024-02-26T08:58:29;4.40;79.50
13458;DHT22;6801;53.018;11.560;2024-02-26T09:00:56;4.50;79.50
13458;DHT22;6801;53.018;11.560;2024-02-26T09:03:23;4.50;79.60
13458;DHT22;6801;53.018;11.560;2024-02-26T09:05:51;4.50;79.50
13458;DHT22;6801;53.018;11.560;2024-02-26T09:08:18;4.60;79.60
13458;DHT22;6801;53.018;11.560;2024-02-26T09:10:46;4.60;79.60
13458;DHT22;6801;53.018;11.560;2024-02-26T09:13:14;4.70;79.50
13458;DHT22;6801;53.018;11.560;2024-02-26T09:15:41;4.70;79.50
13458;DHT22;6801;53.018;11.560;2024-02-26T09:18:08;4.80;79.50
13458;DHT22;6801;53.018;11.560;2024-02-26T09:20:35;4.90;79.60
13458;DHT22;6801;53.018;11.560;2024-02-26T09:23:03;4.90;79.70
13458;DHT22;6801;53.018;11.560;2024-02-26T09:25:30;5.00;79.60
13458;DHT22;6801;53.018;11.560;2024-02-26T09:27:59;5.00;79.60
13458;DHT22;6801;53.018;11.560;2024-02-26T09:30:27;5.00;79.60
13458;DHT22;6801;53.018;11.560;2024-02-26T09:32:54;5.10;79.70
13458;DHT22;6801;53.018;11.560;2024-02-26T09:35:21;5.10;79.70
13458;DHT22;6801;53.018;11.560;2024-02-26T09:37:48;5.10;79.60
13458;DHT22;6801;53.018;11.560;2024-02-26T09:40:16;5.20;79.70
13458;DHT22;6801;53.018;11.560;2024-02-26T09:42:44;5.30;79.70
13458;DHT22;6801;53.018;11.560;2024-02-26T09:45:17;5.30;79.80
13458;DHT22;6801;53.018;11.560;2024-02-26T09:47:48;5.40;79.80
13458;DHT22;6801;53.018;11.560;2024-02-26T09:50:16;5.50;79.70
13458;DHT22;6801;53.018;11.560;2024-02-26T09:52:43;5.60;79.70
13458;DHT22;6801;53.018;11.560;2024-02-26T09:55:11;5.60;79.60
13458;DHT22;6801;53.018;11.560;2024-02-26T09:57:38;5.70;79.70
13458;DHT22;6801;53.018;11.560;2024-02-26T10:00:09;5.70;79.80
13458;DHT22;6801;53.018;11.560;2024-02-26T10:02:36;5.70;79.80
13458;DHT22;6801;53.018;11.560;2024-02-26T10:05:08;5.80;79.60
13458;DHT22;6801;53.018;11.560;2024-02-26T10:07:37;5.80;79.70
13458;DHT22;6801;53.018;11.560;2024-02-26T10:10:05;5.90;79.80
13458;DHT22;6801;53.018;11.560;2024-02-26T10:12:32;5.90;79.80
13458;DHT22;6801;53.018;11.560;2024-02-26T10:14:59;6.00;79.80
13458;DHT22;6801;53.018;11.560;2024-02-26T10:17:27;6.00;79.80
13458;DHT22;6801;53.018;11.560;2024-02-26T10:19:54;6.00;79.70
13458;DHT22;6801;53.018;11.560;2024-02-26T10:22:23;6.10;79.70
13458;DHT22;6801;53.018;11.560;2024-02-26T10:24:50;6.00;79.70
13458;DHT22;6801;53.018;11.560;2024-02-26T10:27:19;6.10;79.70
13458;DHT22;6801;53.018;11.560;2024-02-26T10:29:46;6.10;79.80
13458;DHT22;6801;53.018;11.560;2024-02-26T10:32:13;6.20;79.80
13458;DHT22;6801;53.018;11.560;2024-02-26T10:34:40;6.30;79.80
13458;DHT22;6801;53.018;11.560;2024-02-26T10:37:08;6.30;79.70
13458;DHT22;6801;53.018;11.560;2024-02-26T10:39:38;6.30;79.60
13458;DHT22;6801;53.018;11.560;2024-02-26T10:42:05;6.40;79.50
13458;DHT22;6801;53.018;11.560;2024-02-26T10:44:35;6.50;79.40
13458;DHT22;6801;53.018;11.560;2024-02-26T10:47:03;6.50;79.30
13458;DHT22;6801;53.018;11.560;2024-02-26T10:49:30;6.60;79.30
13458;DHT22;6801;53.018;11.560;2024-02-26T10:51:59;6.80;79.20
13458;DHT22;6801;53.018;11.560;2024-02-26T10:54:27;6.80;79.00
13458;DHT22;6801;53.018;11.560;2024-02-26T10:56:57;6.90;79.00
13458;DHT22;6801;53.018;11.560;2024-02-26T10:59:26;7.00;78.80
13458;DHT22;6801;53.018;11.560;2024-02-26T11:01:54;7.00;78.80
13458;DHT22;6801;53.018;11.560;2024-02-26T11:04:22;7.10;78.60
13458;DHT22;6801;53.018;11.560;2024-02-26T11:06:51;7.20;78.60
13458;DHT22;6801;53.018;11.560;2024-02-26T11:09:19;7.30;78.50
13458;DHT22;6801;53.018;11.560;2024-02-26T11:11:47;7.30;78.50
13458;DHT22;6801;53.018;11.560;2024-02-26T11:14:16;7.30;78.40
13458;DHT22;6801;53.018;11.560;2024-02-26T11:16:44;7.30;78.50
13458;DHT22;6801;53.018;11.560;2024-02-26T11:19:12;7.30;78.50
13458;DHT22;6801;53.018;11.560;2024-02-26T11:21:39;7.40;78.40
13458;DHT22;6801;53.018;11.560;2024-02-26T11:24:10;7.50;78.40
13458;DHT22;6801;53.018;11.560;2024-02-26T11:26:44;7.50;78.30
13458;DHT22;6801;53.018;11.560;2024-02-26T11:29:16;7.50;78.20
13458;DHT22;6801;53.018;11.560;2024-02-26T11:31:44;7.60;78.30
13458;DHT22;6801;53.018;11.560;2024-02-26T11:34:11;7.70;78.20
13458;DHT22;6801;53.018;11.560;2024-02-26T11:36:38;7.70;78.10
13458;DHT22;6801;53.018;11.560;2024-02-26T11:39:06;7.70;78.10
13458;DHT22;6801;53.018;11.560;2024-02-26T11:41:34;7.70;78.20
13458;DHT22;6801;53.018;11.560;2024-02-26T11:44:03;7.80;78.00
13458;DHT22;6801;53.018;11.560;2024-02-26T11:46:39;7.90;77.70
13458;DHT22;6801;53.018;11.560;2024-02-26T11:49:30;7.80;77.80
13458;DHT22;6801;53.018;11.560;2024-02-26T11:51:58;7.80;78.00
13458;DHT22;6801;53.018;11.560;2024-02-26T11:54:45;7.90;78.10
13458;DHT22;6801;53.018;11.560;2024-02-26T11:57:27;7.90;78.20
13458;DHT22;6801;53.018;11.560;2024-02-26T11:59:55;8.00;78.30
13458;DHT22;6801;53.018;11.560;2024-02-26T12:02:46;8.00;78.20
13458;DHT22;6801;53.018;11.560;2024-02-26T12:05:15;8.10;77.80
13458;DHT22;6801;53.018;11.560;2024-02-26T12:07:45;8.20;77.80
13458;DHT22;6801;53.018;11.560;2024-02-26T12:10:23;8.20;77.90
13458;DHT22;6801;53.018;11.560;2024-02-26T12:12:54;8.30;78.00
13458;DHT22;6801;53.018;11.560;2024-02-26T12:15:23;8.30;78.10
13458;DHT22;6801;53.018;11.560;2024-02-26T12:17:53;8.40;78.00
13458;DHT22;6801;53.018;11.560;2024-02-26T12:20:20;8.40;77.80
13458;DHT22;6801;53.018;11.560;2024-02-26T12:22:50;8.40;77.90
13458;DHT22;6801;53.018;11.560;2024-02-26T12:25:20;8.50;77.50
13458;DHT22;6801;53.018;11.560;2024-02-26T12:27:48;8.50;77.70
13458;DHT22;6801;53.018;11.560;2024-02-26T12:30:15;8.60;77.20
13458;DHT22;6801;53.018;11.560;2024-02-26T12:32:42;8.60;77.30
13458;DHT22;6801;53.018;11.560;2024-02-26T12:35:11;8.60;77.40
13458;DHT22;6801;53.018;11.560;2024-02-26T12:37:38;8.60;77.50
13458;DHT22;6801;53.018;11.560;2024-02-26T12:40:07;8.70;77.40
13458;DHT22;6801;53.018;11.560;2024-02-26T12:42:35;8.70;77.40
13458;DHT22;6801;53.018;11.560;2024-02-26T12:45:06;8.80;77.30
13458;DHT22;6801;53.018;11.560;2024-02-26T12:47:38;8.80;77.40
13458;DHT22;6801;53.018;11.560;2024-02-26T12:50:07;8.80;77.20
13458;DHT22;6801;53.018;11.560;2024-02-26T12:52:37;8.80;77.20
13458;DHT22;6801;53.018;11.560;2024-02-26T12:55:05;8.80;77.30
13458;DHT22;6801;53.018;11.560;2024-02-26T12:57:36;8.90;77.10
13458;DHT22;6801;53.018;11.560;2024-02-26T13:00:05;8.90;77.10
13458;DHT22;6801;53.018;11.560;2024-02-26T13:02:35;8.90;77.30
13458;DHT22;6801;53.018;11.560;2024-02-26T13:05:04;8.90;77.20
13458;DHT22;6801;53.018;11.560;2024-02-26T13:07:33;8.90;77.40
13458;DHT22;6801;53.018;11.560;2024-02-26T13:10:02;9.00;77.30
13458;DHT22;6801;53.018;11.560;2024-02-26T13:12:30;9.00;77.10
13458;DHT22;6801;53.018;11.560;2024-02-26T13:15:00;9.00;76.40
13458;DHT22;6801;53.018;11.560;2024-02-26T13:17:27;9.00;76.70
13458;DHT22;6801;53.018;11.560;2024-02-26T13:19:58;9.00;76.40
13458;DHT22;6801;53.018;11.560;2024-02-26T13:22:25;9.00;76.10
13458;DHT22;6801;53.018;11.560;2024-02-26T13:24:55;9.10;76.40
13458;DHT22;6801;53.018;11.560;2024-02-26T13:27:25;9.10;76.00
13458;DHT22;6801;53.018;11.560;2024-02-26T13:30:03;9.10;76.50
13458;DHT22;6801;53.018;11.560;2024-02-26T13:32:32;9.20;75.80
13458;DHT22;6801;53.018;11.560;2024-02-26T13:35:07;9.20;75.30
13458;DHT22;6801;53.018;11.560;2024-02-26T13:37:34;9.20;75.50
13458;DHT22;6801;53.018;11.560;2024-02-26T13:40:05;9.20;75.50
13458;DHT22;6801;53.018;11.560;2024-02-26T13:42:33;9.20;75.70
13458;DHT22;6801;53.018;11.560;2024-02-26T13:45:01;9.20;76.20
13458;DHT22;6801;53.018;11.560;2024-02-26T13:47:28;9.20;75.80
13458;DHT22;6801;53.018;11.560;2024-02-26T13:49:55;9.20;76.20
13458;DHT22;6801;53.018;11.560;2024-02-26T13:52:22;9.30;75.90
13458;DHT22;6801;53.018;11.560;2024-02-26T13:54:50;9.30;75.90
13458;DHT22;6801;53.018;11.560;2024-02-26T13:57:17;9.30;76.00
13458;DHT22;6801;53.018;11.560;2024-02-26T13:59:46;9.30;75.40
13458;DHT22;6801;53.018;11.560;2024-02-26T14:02:13;9.40;75.70
13458;DHT22;6801;53.018;11.560;2024-02-26T14:04:40;9.40;75.50
13458;DHT22;6801;53.018;11.560;2024-02-26T14:07:07;9.30;75.40
13458;DHT22;6801;53.018;11.560;2024-02-26T14:09:35;9.50;74.20
13458;DHT22;6801;53.018;11.560;2024-02-26T14:12:02;9.40;74.80
13458;DHT22;6801;53.018;11.560;2024-02-26T14:14:30;9.40;75.10
13458;DHT22;6801;53.018;11.560;2024-02-26T14:17:02;9.40;75.00
13458;DHT22;6801;53.018;11.560;2024-02-26T14:19:30;9.40;75.00
13458;DHT22;6801;53.018;11.560;2024-02-26T14:21:57;9.40;75.30
13458;DHT22;6801;53.018;11.560;2024-02-26T14:24:25;9.40;75.60
13458;DHT22;6801;53.018;11.560;2024-02-26T14:26:52;9.40;75.70
13458;DHT22;6801;53.018;11.560;2024-02-26T14:29:19;9.50;75.50
13458;DHT22;6801;53.018;11.560;2024-02-26T14:31:46;9.50;75.50
13458;DHT22;6801;53.018;11.560;2024-02-26T14:34:15;9.50;75.60
13458;DHT22;6801;53.018;11.560;2024-02-26T14:36:44;9.50;75.80
13458;DHT22;6801;53.018;11.560;2024-02-26T14:39:11;9.40;76.00
13458;DHT22;6801;53.018;11.560;2024-02-26T14:41:38;9.50;76.00
13458;DHT22;6801;53.018;11.560;2024-02-26T14:44:05;9.50;75.90
13458;DHT22;6801;53.018;11.560;2024-02-26T14:46:32;9.50;75.80
13458;DHT22;6801;53.018;11.560;2024-02-26T14:49:00;9.50;75.80
13458;DHT22;6801;53.018;11.560;2024-02-26T14:51:28;9.50;75.90
13458;DHT22;6801;53.018;11.560;2024-02-26T14:53:55;9.50;76.00
13458;DHT22;6801;53.018;11.560;2024-02-26T14:56:24;9.50;76.00
13458;DHT22;6801;53.018;11.560;2024-02-26T14:58:52;9.50;76.00
13458;DHT22;6801;53.018;11.560;2024-02-26T15:01:19;9.50;76.00
13458;DHT22;6801;53.018;11.560;2024-02-26T15:03:46;9.50;76.00
13458;DHT22;6801;53.018;11.560;2024-02-26T15:06:13;9.60;76.00
13458;DHT22;6801;53.018;11.560;2024-02-26T15:08:42;9.60;76.00
13458;DHT22;6801;53.018;11.560;2024-02-26T15:11:09;9.60;75.40
13458;DHT22;6801;53.018;11.560;2024-02-26T15:13:36;9.60;75.60
13458;DHT22;6801;53.018;11.560;2024-02-26T15:16:04;9.70;75.50
13458;DHT22;6801;53.018;11.560;2024-02-26T15:18:31;9.70;75.60
13458;DHT22;6801;53.018;11.560;2024-02-26T15:20:59;9.70;75.30
13458;DHT22;6801;53.018;11.560;2024-02-26T15:23:26;9.70;75.20
13458;DHT22;6801;53.018;11.560;2024-02-26T15:25:55;9.70;74.40
13458;DHT22;6801;53.018;11.560;2024-02-26T15:28:22;9.70;73.80
13458;DHT22;6801;53.018;11.560;2024-02-26T15:30:52;9.70;73.70
13458;DHT22;6801;53.018;11.560;2024-02-26T15:33:19;9.70;73.60
13458;DHT22;6801;53.018;11.560;2024-02-26T15:35:46;9.80;74.00
13458;DHT22;6801;53.018;11.560;2024-02-26T15:38:13;9.70;73.50
13458;DHT22;6801;53.018;11.560;2024-02-26T15:40:40;9.80;73.70
13458;DHT22;6801;53.018;11.560;2024-02-26T15:43:09;9.80;74.10
13458;DHT22;6801;53.018;11.560;2024-02-26T15:45:36;9.70;73.50
13458;DHT22;6801;53.018;11.560;2024-02-26T15:48:03;9.70;73.70
13458;DHT22;6801;53.018;11.560;2024-02-26T15:50:31;9.70;73.40